Time;durP1;ratioP1;P1;durP2;ratioP2;P2;SDS_P1;SDS_P2;PMS_P1;PMS_P2;Temp;Humidity;BMP_temperature;BMP_pressure;BME280_temperature;BME280_humidity;BME280_pressure;Samples;Min_cycle;Max_cycle;Signal;HPM_P1;HPM_P2
2021/08/04 00:01:02;;;;;;;3.25;2.10;;;;;;;;;;5029484;28;20048;-49
2021/08/04 00:03:29;;;;;;;4.55;2.00;;;;;;;;;;5029518;28;20048;-47
2021/08/04 00:05:56;;;;;;;3.67;2.20;;;;;;;;;;5030364;28;20053;-50
2021/08/04 00:08:23;;;;;;;3.00;2.05;;;;;;;;;;5018018;28;20100;-50
2021/08/04 00:10:50;;;;;;;2.97;2.08;;;;;;;;;;5026852;28;20064;-51
2021/08/04 00:13:17;;;;;;;3.22;2.35;;;;;;;;;;5027153;28;20045;-46
2021/08/04 00:15:43;;;;;;;5.70;2.30;;;;;;;;;;5024776;28;20107;-47
2021/08/04 00:18:10;;;;;;;5.60;2.50;;;;;;;;;;5029115;28;20049;-54
2021/08/04 00:20:37;;;;;;;2.90;2.08;;;;;;;;;;5031866;28;20047;-48
2021/08/04 00:23:03;;;;;;;2.95;2.10;;;;;;;;;;5031320;28;20046;-47
2021/08/04 00:25:30;;;;;;;3.58;2.25;;;;;;;;;;5026612;28;20049;-49
2021/08/04 00:27:57;;;;;;;3.67;2.20;;;;;;;;;;5026921;28;20132;-49
2021/08/04 00:30:24;;;;;;;3.83;2.13;;;;;;;;;;5021776;28;20128;-48
2021/08/04 00:32:54;;;;;;;3.55;2.00;;;;;;;;;;5030221;28;20045;-45
2021/08/04 00:35:21;;;;;;;3.95;2.20;;;;;;;;;;5029655;28;20056;-45
2021/08/04 00:37:48;;;;;;;5.13;2.40;;;;;;;;;;5028754;28;20551;-46
2021/08/04 00:40:15;;;;;;;4.43;2.10;;;;;;;;;;5027641;28;20064;-51
2021/08/04 00:42:42;;;;;;;4.65;2.22;;;;;;;;;;5029137;28;20524;-47
2021/08/04 00:45:10;;;;;;;3.50;1.92;;;;;;;;;;5028072;28;20049;-48
2021/08/04 00:47:38;;;;;;;3.70;2.20;;;;;;;;;;5029028;28;20042;-48
2021/08/04 00:50:05;;;;;;;3.17;2.13;;;;;;;;;;5027656;28;20521;-46
2021/08/04 00:52:32;;;;;;;3.42;2.22;;;;;;;;;;5014478;28;20053;-48
2021/08/04 00:55:00;;;;;;;4.30;2.50;;;;;;;;;;5023973;28;20503;-51
2021/08/04 00:57:27;;;;;;;5.43;2.40;;;;;;;;;;5029533;28;20041;-47
2021/08/04 01:00:03;;;;;;;3.40;2.53;;;;;;;;;;5022646;28;20057;-48
2021/08/04 01:02:30;;;;;;;3.85;2.30;;;;;;;;;;5007737;28;20384;-52
2021/08/04 01:05:04;;;;;;;4.32;2.28;;;;;;;;;;5030271;28;20406;-46
2021/08/04 01:07:31;;;;;;;3.83;2.22;;;;;;;;;;5030117;28;20132;-50
2021/08/04 01:10:06;;;;;;;3.70;2.17;;;;;;;;;;5026408;28;20415;-48
2021/08/04 01:12:40;;;;;;;2.80;1.90;;;;;;;;;;5026878;28;20394;-47
2021/08/04 01:15:08;;;;;;;4.68;2.65;;;;;;;;;;5029905;28;20048;-47
2021/08/04 01:17:36;;;;;;;4.45;2.33;;;;;;;;;;5024879;28;20068;-49
2021/08/04 01:20:11;;;;;;;4.30;2.28;;;;;;;;;;5010082;28;20050;-50
2021/08/04 01:22:47;;;;;;;4.10;2.40;;;;;;;;;;5027734;28;20033;-50
2021/08/04 01:25:16;;;;;;;3.72;2.45;;;;;;;;;;5028348;28;20049;-50
2021/08/04 01:27:50;;;;;;;5.10;2.55;;;;;;;;;;5028369;28;20049;-49
2021/08/04 01:30:18;;;;;;;4.93;2.40;;;;;;;;;;5020383;28;20049;-52
2021/08/04 01:32:46;;;;;;;3.67;2.35;;;;;;;;;;5022130;28;20045;-51
2021/08/04 01:35:13;;;;;;;3.80;2.50;;;;;;;;;;5028992;28;20052;-46
2021/08/04 01:37:41;;;;;;;3.95;2.70;;;;;;;;;;5027833;28;20506;-48
2021/08/04 01:40:11;;;;;;;3.88;2.80;;;;;;;;;;5025102;28;20069;-47
2021/08/04 01:42:38;;;;;;;4.35;2.60;;;;;;;;;;5029321;28;20042;-51
2021/08/04 01:45:06;;;;;;;4.10;2.50;;;;;;;;;;5029228;28;20049;-49
2021/08/04 01:47:33;;;;;;;4.47;2.33;;;;;;;;;;5021608;28;20132;-48
2021/08/04 01:50:00;;;;;;;3.92;2.47;;;;;;;;;;5027621;28;20067;-50
2021/08/04 01:52:26;;;;;;;4.72;2.60;;;;;;;;;;5026321;28;20495;-47
2021/08/04 01:54:54;;;;;;;3.30;2.47;;;;;;;;;;5027722;28;20037;-55
2021/08/04 01:57:21;;;;;;;3.53;2.50;;;;;;;;;;5024665;28;20408;-49
2021/08/04 01:59:48;;;;;;;6.13;2.80;;;;;;;;;;5024392;28;20539;-48
2021/08/04 02:02:19;;;;;;;4.40;2.50;;;;;;;;;;5012667;28;20041;-51
2021/08/04 02:04:46;;;;;;;4.88;2.42;;;;;;;;;;5028069;28;20072;-48
2021/08/04 02:07:18;;;;;;;4.07;2.30;;;;;;;;;;5028631;28;20050;-50
2021/08/04 02:09:52;;;;;;;5.43;2.83;;;;;;;;;;5027136;28;20095;-50
2021/08/04 02:12:19;;;;;;;4.35;2.55;;;;;;;;;;5030701;28;20080;-50
2021/08/04 02:14:52;;;;;;;3.28;2.28;;;;;;;;;;5028384;28;20029;-52
2021/08/04 02:17:19;;;;;;;;;;;;;;;;;;5027773;28;20042;-51
2021/08/04 02:19:54;;;;;;;4.53;2.50;;;;;;;;;;5011377;28;19928;-49
2021/08/04 02:22:24;;;;;;;4.15;2.58;;;;;;;;;;5029324;28;20088;-50
2021/08/04 02:25:10;;;;;;;6.13;2.58;;;;;;;;;;5028483;28;20045;-50
2021/08/04 02:27:38;;;;;;;4.63;2.85;;;;;;;;;;5027952;28;20040;-56
2021/08/04 02:30:09;;;;;;;4.30;3.00;;;;;;;;;;5027520;28;20076;-49
2021/08/04 02:32:36;;;;;;;4.22;2.30;;;;;;;;;;5030625;28;20072;-51
2021/08/04 02:35:04;;;;;;;5.70;2.50;;;;;;;;;;5028372;28;20042;-48
2021/08/04 02:37:31;;;;;;;5.97;3.00;;;;;;;;;;5028319;28;20129;-48
2021/08/04 02:39:58;;;;;;;4.28;2.67;;;;;;;;;;5020836;28;20624;-49
2021/08/04 02:42:25;;;;;;;5.75;2.63;;;;;;;;;;5030514;28;20460;-47
2021/08/04 02:44:54;;;;;;;3.67;2.50;;;;;;;;;;5031565;28;20053;-48
2021/08/04 02:47:21;;;;;;;3.35;2.25;;;;;;;;;;5027915;28;20038;-48
2021/08/04 02:49:49;;;;;;;3.47;2.60;;;;;;;;;;5031217;28;20103;-50
2021/08/04 02:52:16;;;;;;;3.42;2.30;;;;;;;;;;5032739;28;20095;-47
2021/08/04 02:54:44;;;;;;;4.20;2.50;;;;;;;;;;5031220;28;20045;-48
2021/08/04 02:57:11;;;;;;;3.95;2.58;;;;;;;;;;5029107;28;20447;-51
2021/08/04 02:59:38;;;;;;;4.50;2.47;;;;;;;;;;5029159;28;20065;-53
2021/08/04 03:02:05;;;;;;;5.03;2.50;;;;;;;;;;5030901;28;20435;-51
2021/08/04 03:04:32;;;;;;;5.32;3.42;;;;;;;;;;5032037;28;20034;-50
2021/08/04 03:06:58;;;;;;;4.03;3.00;;;;;;;;;;5029799;28;20106;-50
2021/08/04 03:09:25;;;;;;;5.55;3.20;;;;;;;;;;5029213;28;20537;-50
2021/08/04 03:11:52;;;;;;;4.47;2.80;;;;;;;;;;5031628;28;20049;-52
2021/08/04 03:14:18;;;;;;;3.45;2.40;;;;;;;;;;5032360;28;20067;-49
2021/08/04 03:16:45;;;;;;;3.45;2.50;;;;;;;;;;5030520;28;20467;-51
2021/08/04 03:19:13;;;;;;;3.85;2.55;;;;;;;;;;5030225;28;20037;-49
2021/08/04 03:21:40;;;;;;;4.25;2.55;;;;;;;;;;5032466;28;20197;-51
2021/08/04 03:24:06;;;;;;;4.32;2.33;;;;;;;;;;5031313;28;20120;-50
2021/08/04 03:26:34;;;;;;;3.15;2.25;;;;;;;;;;5028793;28;20745;-48
2021/08/04 03:29:01;;;;;;;3.83;2.60;;;;;;;;;;5030416;28;20073;-49
2021/08/04 03:31:27;;;;;;;4.05;2.42;;;;;;;;;;5029397;28;20090;-50
2021/08/04 03:33:54;;;;;;;3.88;2.47;;;;;;;;;;5032114;28;20037;-50
2021/08/04 03:36:22;;;;;;;3.35;2.20;;;;;;;;;;5028618;28;20037;-49
2021/08/04 03:38:48;;;;;;;3.33;2.38;;;;;;;;;;5027991;28;20499;-50
2021/08/04 03:41:15;;;;;;;3.50;2.30;;;;;;;;;;5030355;28;20053;-48
2021/08/04 03:43:42;;;;;;;4.35;2.40;;;;;;;;;;5031040;28;20622;-53
2021/08/04 03:46:09;;;;;;;6.38;3.35;;;;;;;;;;5028165;28;20055;-51
2021/08/04 03:48:35;;;;;;;4.15;3.00;;;;;;;;;;5026107;28;20037;-52
2021/08/04 03:51:03;;;;;;;4.05;2.75;;;;;;;;;;5028423;28;20503;-51
2021/08/04 03:53:29;;;;;;;4.97;4.03;;;;;;;;;;5029810;28;20510;-52
2021/08/04 03:55:56;;;;;;;4.75;3.55;;;;;;;;;;5026093;28;20042;-49
2021/08/04 03:58:23;;;;;;;4.60;3.30;;;;;;;;;;5029241;28;20038;-49
2021/08/04 04:00:57;;;;;;;4.57;2.92;;;;;;;;;;5022423;28;20050;-56
2021/08/04 04:03:24;;;;;;;4.38;2.88;;;;;;;;;;5030914;28;20055;-50
2021/08/04 04:05:51;;;;;;;3.60;2.10;;;;;;;;;;5030942;28;20041;-55
2021/08/04 04:08:18;;;;;;;3.80;2.50;;;;;;;;;;5030990;28;20099;-52
2021/08/04 04:10:44;;;;;;;3.55;2.55;;;;;;;;;;5022687;28;20511;-48
2021/08/04 04:13:11;;;;;;;5.10;2.35;;;;;;;;;;5030677;28;20117;-54
2021/08/04 04:15:42;;;;;;;3.75;2.33;;;;;;;;;;5029190;28;20053;-46
2021/08/04 04:18:09;;;;;;;5.50;3.03;;;;;;;;;;5027672;28;20038;-49
2021/08/04 04:20:35;;;;;;;3.13;2.22;;;;;;;;;;5028401;28;20042;-51
2021/08/04 04:23:02;;;;;;;3.85;2.50;;;;;;;;;;5032302;28;20043;-49
2021/08/04 04:25:29;;;;;;;4.15;2.70;;;;;;;;;;5029365;28;20041;-47
2021/08/04 04:27:56;;;;;;;4.00;2.88;;;;;;;;;;5029077;28;20387;-52
2021/08/04 04:30:22;;;;;;;4.93;2.97;;;;;;;;;;5029473;28;20052;-56
2021/08/04 04:32:49;;;;;;;3.88;2.60;;;;;;;;;;5029948;28;20064;-56
2021/08/04 04:35:16;;;;;;;4.43;2.90;;;;;;;;;;5028576;28;20044;-56
2021/08/04 04:37:43;;;;;;;4.53;3.40;;;;;;;;;;5030055;28;20045;-57
2021/08/04 04:40:10;;;;;;;5.00;3.20;;;;;;;;;;5026683;28;20067;-56
2021/08/04 04:42:36;;;;;;;5.35;3.08;;;;;;;;;;5029592;28;20044;-55
2021/08/04 04:45:03;;;;;;;5.70;3.47;;;;;;;;;;5029933;28;20440;-57
2021/08/04 04:47:30;;;;;;;4.47;2.65;;;;;;;;;;5028777;28;20133;-56
2021/08/04 04:49:57;;;;;;;6.35;3.72;;;;;;;;;;5017392;28;20042;-56
2021/08/04 04:52:23;;;;;;;4.82;3.33;;;;;;;;;;5030415;28;20128;-56
2021/08/04 04:54:50;;;;;;;4.80;3.15;;;;;;;;;;5030623;28;20391;-57
2021/08/04 04:57:17;;;;;;;4.72;3.10;;;;;;;;;;5029864;28;20045;-54
2021/08/04 04:59:44;;;;;;;4.72;3.13;;;;;;;;;;5023703;28;20435;-55
2021/08/04 05:02:10;;;;;;;4.40;2.92;;;;;;;;;;5026997;28;20043;-57
2021/08/04 05:04:37;;;;;;;4.60;2.70;;;;;;;;;;5030640;28;20487;-56
2021/08/04 05:07:04;;;;;;;4.63;2.90;;;;;;;;;;5029121;28;20052;-55
2021/08/04 05:09:31;;;;;;;5.65;2.75;;;;;;;;;;5025411;28;20052;-57
2021/08/04 05:11:58;;;;;;;3.72;2.50;;;;;;;;;;5019788;28;20128;-56
2021/08/04 05:14:24;;;;;;;4.57;2.60;;;;;;;;;;5029626;28;20037;-55
2021/08/04 05:16:54;;;;;;;3.88;2.70;;;;;;;;;;5029716;28;20407;-54
2021/08/04 05:19:21;;;;;;;5.15;2.67;;;;;;;;;;5024163;28;20137;-56
2021/08/04 05:21:48;;;;;;;4.82;2.08;;;;;;;;;;5030532;28;20123;-55
2021/08/04 05:24:15;;;;;;;3.63;2.40;;;;;;;;;;5028043;28;20143;-55
2021/08/04 05:26:41;;;;;;;3.80;2.50;;;;;;;;;;5026412;28;20057;-56
2021/08/04 05:29:08;;;;;;;3.72;2.67;;;;;;;;;;5030024;28;20067;-54
2021/08/04 05:31:35;;;;;;;4.35;2.40;;;;;;;;;;5019855;28;20515;-56
2021/08/04 05:34:02;;;;;;;4.43;2.50;;;;;;;;;;5030660;28;20042;-56
2021/08/04 05:36:28;;;;;;;4.47;2.50;;;;;;;;;;5028978;28;20088;-57
2021/08/04 05:38:57;;;;;;;4.38;2.70;;;;;;;;;;5020713;28;20148;-56
2021/08/04 05:41:24;;;;;;;5.32;2.38;;;;;;;;;;5027788;28;20562;-57
2021/08/04 05:43:51;;;;;;;3.88;2.33;;;;;;;;;;5028577;28;20046;-55
2021/08/04 05:46:18;;;;;;;4.70;2.67;;;;;;;;;;5027012;28;20129;-55
2021/08/04 05:48:44;;;;;;;3.63;2.28;;;;;;;;;;5027930;28;20126;-56
2021/08/04 05:51:11;;;;;;;3.63;2.17;;;;;;;;;;5028341;28;20053;-53
2021/08/04 05:53:38;;;;;;;3.00;1.95;;;;;;;;;;5028889;28;20551;-55
2021/08/04 05:56:05;;;;;;;6.68;2.35;;;;;;;;;;5025964;28;20410;-53
2021/08/04 05:58:31;;;;;;;3.95;2.40;;;;;;;;;;5028919;28;20042;-54
2021/08/04 06:00:58;;;;;;;3.88;2.20;;;;;;;;;;5018198;28;20049;-55
2021/08/04 06:03:25;;;;;;;2.95;2.00;;;;;;;;;;5028724;28;20046;-51
2021/08/04 06:05:52;;;;;;;4.22;2.30;;;;;;;;;;5030009;28;20069;-53
2021/08/04 06:08:19;;;;;;;5.50;2.40;;;;;;;;;;5025605;28;20077;-51
2021/08/04 06:10:46;;;;;;;4.03;1.98;;;;;;;;;;5029711;28;20041;-54
2021/08/04 06:13:12;;;;;;;3.78;2.25;;;;;;;;;;5030772;28;20045;-52
2021/08/04 06:15:47;;;;;;;2.95;1.70;;;;;;;;;;5025041;28;20038;-53
2021/08/04 06:18:13;;;;;;;2.75;2.05;;;;;;;;;;5032629;28;20048;-56
2021/08/04 06:20:40;;;;;;;3.60;1.88;;;;;;;;;;5032043;28;20048;-56
2021/08/04 06:23:07;;;;;;;2.60;1.85;;;;;;;;;;5033201;28;20091;-55
2021/08/04 06:25:34;;;;;;;4.32;1.95;;;;;;;;;;5013045;28;20097;-55
2021/08/04 06:28:01;;;;;;;3.72;1.85;;;;;;;;;;5028506;28;20510;-53
2021/08/04 06:30:28;;;;;;;8.27;1.90;;;;;;;;;;5022377;28;20495;-56
2021/08/04 06:32:55;;;;;;;5.38;2.20;;;;;;;;;;5020261;28;20493;-56
2021/08/04 06:35:22;;;;;;;2.90;1.63;;;;;;;;;;5032071;28;20487;-56
2021/08/04 06:37:49;;;;;;;2.72;1.50;;;;;;;;;;5031685;28;20048;-55
2021/08/04 06:40:16;;;;;;;2.45;1.63;;;;;;;;;;5018103;28;20447;-55
2021/08/04 06:42:42;;;;;;;3.75;2.00;;;;;;;;;;5027333;28;20049;-56
2021/08/04 06:45:10;;;;;;;3.83;1.70;;;;;;;;;;5032256;28;20042;-56
2021/08/04 06:47:37;;;;;;;5.82;1.60;;;;;;;;;;5032799;28;20050;-55
2021/08/04 06:50:04;;;;;;;4.32;1.70;;;;;;;;;;5026220;28;20479;-56
2021/08/04 06:52:30;;;;;;;3.13;1.90;;;;;;;;;;5031793;28;20050;-49
2021/08/04 06:54:57;;;;;;;4.10;1.95;;;;;;;;;;5032907;28;20042;-53
2021/08/04 06:57:24;;;;;;;2.55;1.67;;;;;;;;;;5029169;28;20099;-47
2021/08/04 06:59:51;;;;;;;2.83;1.70;;;;;;;;;;5026531;28;20156;-47
2021/08/04 07:02:17;;;;;;;2.15;1.50;;;;;;;;;;5029220;28;20124;-52
2021/08/04 07:04:44;;;;;;;1.85;1.30;;;;;;;;;;5031927;28;20099;-49
2021/08/04 07:07:14;;;;;;;2.70;1.65;;;;;;;;;;5031030;28;20050;-50
2021/08/04 07:09:41;;;;;;;2.13;1.38;;;;;;;;;;5032653;28;20132;-50
2021/08/04 07:12:10;;;;;;;3.25;1.40;;;;;;;;;;5031785;28;20095;-51
2021/08/04 07:14:38;;;;;;;2.65;1.40;;;;;;;;;;5025006;28;20045;-48
2021/08/04 07:17:05;;;;;;;2.88;1.60;;;;;;;;;;5019639;28;20042;-50
2021/08/04 07:19:33;;;;;;;2.05;1.30;;;;;;;;;;5030432;28;20041;-52
2021/08/04 07:22:00;;;;;;;2.33;1.30;;;;;;;;;;5024874;28;20038;-51
2021/08/04 07:24:27;;;;;;;1.77;1.30;;;;;;;;;;5029427;28;20069;-49
2021/08/04 07:26:54;;;;;;;2.50;1.60;;;;;;;;;;5031975;28;20044;-47
2021/08/04 07:29:21;;;;;;;3.15;1.65;;;;;;;;;;5029885;28;20123;-48
2021/08/04 07:31:48;;;;;;;1.98;1.27;;;;;;;;;;5025491;28;20069;-48
2021/08/04 07:34:17;;;;;;;1.88;1.20;;;;;;;;;;5032040;28;20113;-53
2021/08/04 07:36:44;;;;;;;3.17;1.40;;;;;;;;;;5032066;28;20045;-52
2021/08/04 07:39:11;;;;;;;4.88;1.40;;;;;;;;;;5027786;28;20118;-53
2021/08/04 07:41:38;;;;;;;1.55;1.13;;;;;;;;;;5031974;28;20132;-50
2021/08/04 07:44:04;;;;;;;1.98;1.30;;;;;;;;;;5031115;28;20095;-48
2021/08/04 07:46:51;;;;;;;5.43;2.55;;;;;;;;;;5029196;28;20510;-48
2021/08/04 07:49:17;;;;;;;2.10;1.40;;;;;;;;;;5029422;28;20041;-52
2021/08/04 07:51:44;;;;;;;2.17;1.35;;;;;;;;;;5029780;28;20077;-49
2021/08/04 07:54:11;;;;;;;1.80;1.10;;;;;;;;;;5031166;28;20144;-46
2021/08/04 07:56:38;;;;;;;2.10;1.10;;;;;;;;;;5025348;28;20117;-54
2021/08/04 07:59:04;;;;;;;2.60;1.10;;;;;;;;;;5031647;28;20085;-47
2021/08/04 08:01:31;;;;;;;2.80;1.58;;;;;;;;;;5025727;28;20053;-51
2021/08/04 08:03:59;;;;;;;2.30;1.25;;;;;;;;;;5042600;28;20182;-49
2021/08/04 08:06:25;;;;;;;1.98;1.30;;;;;;;;;;5052279;28;20380;-48
2021/08/04 08:08:52;;;;;;;2.03;1.02;;;;;;;;;;5044998;28;20034;-52
2021/08/04 08:11:19;;;;;;;2.15;1.20;;;;;;;;;;5013064;28;20159;-48
2021/08/04 08:13:46;;;;;;;2.72;1.23;;;;;;;;;;5025801;28;20056;-48
2021/08/04 08:16:13;;;;;;;1.70;1.23;;;;;;;;;;5032347;28;20037;-50
2021/08/04 08:18:40;;;;;;;1.55;1.10;;;;;;;;;;5035753;28;20043;-46
2021/08/04 08:21:07;;;;;;;1.20;1.00;;;;;;;;;;5037481;28;20473;-51
2021/08/04 08:23:33;;;;;;;1.52;1.08;;;;;;;;;;5033461;28;20518;-47
2021/08/04 08:26:00;;;;;;;2.60;1.30;;;;;;;;;;5043118;28;20076;-48
2021/08/04 08:28:27;;;;;;;2.22;1.20;;;;;;;;;;5025200;28;20487;-49
2021/08/04 08:30:54;;;;;;;2.70;1.10;;;;;;;;;;5035218;28;20091;-47
2021/08/04 08:33:21;;;;;;;4.00;1.13;;;;;;;;;;5032023;28;20051;-53
2021/08/04 08:35:48;;;;;;;1.80;1.20;;;;;;;;;;5041902;28;20105;-46
2021/08/04 08:38:15;;;;;;;2.55;1.10;;;;;;;;;;5010335;28;20069;-47
2021/08/04 08:40:44;;;;;;;5.78;1.33;;;;;;;;;;5012241;28;20049;-49
2021/08/04 08:43:11;;;;;;;2.42;1.00;;;;;;;;;;5020853;28;20494;-47
2021/08/04 08:45:38;;;;;;;2.50;1.40;;;;;;;;;;5031835;28;20120;-47
2021/08/04 08:48:05;;;;;;;3.13;1.50;;;;;;;;;;5021616;28;20053;-48
2021/08/04 08:50:32;;;;;;;1.73;1.20;;;;;;;;;;5031734;28;20052;-48
2021/08/04 08:52:59;;;;;;;1.85;1.40;;;;;;;;;;5030308;28;20136;-47
2021/08/04 08:55:26;;;;;;;2.05;1.25;;;;;;;;;;5028127;28;20121;-50
2021/08/04 08:57:53;;;;;;;1.40;1.00;;;;;;;;;;5017244;28;20514;-45
2021/08/04 09:00:20;;;;;;;3.30;1.20;;;;;;;;;;5022648;28;20064;-49
2021/08/04 09:02:47;;;;;;;1.58;1.08;;;;;;;;;;5016576;28;20065;-47
2021/08/04 09:05:15;;;;;;;2.05;1.15;;;;;;;;;;5030480;28;20034;-47
2021/08/04 09:07:43;;;;;;;2.60;1.50;;;;;;;;;;5031184;28;20136;-47
2021/08/04 09:10:21;;;;;;;1.58;1.10;;;;;;;;;;5016645;28;20058;-53
2021/08/04 09:12:48;;;;;;;1.42;1.05;;;;;;;;;;5022262;28;20046;-47
2021/08/04 09:15:27;;;;;;;4.18;1.70;;;;;;;;;;5046865;28;20051;-51
2021/08/04 09:18:14;;;;;;;3.65;1.20;;;;;;;;;;5039567;28;20037;-53
2021/08/04 09:20:53;;;;;;;3.17;1.33;;;;;;;;;;5020363;28;20171;-51
2021/08/04 09:23:26;;;;;;;1.73;1.23;;;;;;;;;;5027693;28;20421;-50
2021/08/04 09:26:15;;;;;;;1.80;1.10;;;;;;;;;;5026899;28;20037;-47
2021/08/04 09:29:02;;;;;;;3.35;1.27;;;;;;;;;;5027660;28;20132;-46
2021/08/04 09:31:40;;;;;;;2.22;1.23;;;;;;;;;;5028311;28;20499;-52
2021/08/04 09:34:26;;;;;;;1.75;1.02;;;;;;;;;;5030308;28;20041;-54
2021/08/04 09:37:04;;;;;;;1.83;1.17;;;;;;;;;;5030684;28;20046;-47
2021/08/04 09:39:32;;;;;;;2.22;1.38;;;;;;;;;;5024638;28;20514;-49
2021/08/04 09:41:59;;;;;;;1.85;1.27;;;;;;;;;;5023829;28;20042;-50
2021/08/04 09:44:26;;;;;;;2.47;1.30;;;;;;;;;;5029262;28;20053;-54
2021/08/04 09:47:06;;;;;;;1.60;1.20;;;;;;;;;;5026004;28;20120;-50
2021/08/04 09:49:33;;;;;;;2.85;1.50;;;;;;;;;;5035600;28;20419;-48
2021/08/04 09:52:04;;;;;;;3.08;1.58;;;;;;;;;;5024178;28;20054;-49
2021/08/04 09:54:41;;;;;;;2.25;1.35;;;;;;;;;;5035054;28;20042;-51
2021/08/04 09:57:08;;;;;;;3.38;1.33;;;;;;;;;;5031992;28;20072;-51
2021/08/04 09:59:35;;;;;;;2.90;1.48;;;;;;;;;;5022779;28;20073;-49
2021/08/04 10:02:03;;;;;;;3.55;1.50;;;;;;;;;;5026813;28;20125;-47
2021/08/04 10:04:33;;;;;;;3.00;1.50;;;;;;;;;;5033619;28;20048;-48
2021/08/04 10:07:18;;;;;;;1.67;1.33;;;;;;;;;;5032410;28;20144;-49
2021/08/04 10:09:44;;;;;;;2.85;1.50;;;;;;;;;;5025188;28;20072;-49
2021/08/04 10:12:13;;;;;;;3.35;1.65;;;;;;;;;;5028084;28;20091;-51
2021/08/04 10:14:40;;;;;;;4.30;1.60;;;;;;;;;;5034618;28;20064;-48
2021/08/04 10:17:07;;;;;;;2.78;1.40;;;;;;;;;;5033222;28;20061;-54
2021/08/04 10:19:35;;;;;;;2.28;1.20;;;;;;;;;;5014846;28;20045;-48
2021/08/04 10:22:02;;;;;;;2.63;1.60;;;;;;;;;;5029158;28;20045;-50
2021/08/04 10:24:29;;;;;;;2.70;1.65;;;;;;;;;;5034452;28;20079;-51
2021/08/04 10:26:56;;;;;;;2.28;1.40;;;;;;;;;;5030663;28;20120;-49
2021/08/04 10:29:23;;;;;;;3.30;1.60;;;;;;;;;;5029297;28;20132;-49
2021/08/04 10:31:51;;;;;;;2.53;1.50;;;;;;;;;;5032142;28;20050;-57
2021/08/04 10:34:26;;;;;;;3.05;1.45;;;;;;;;;;5032288;28;20054;-58
2021/08/04 10:36:55;;;;;;;2.78;1.48;;;;;;;;;;5033041;28;20075;-55
2021/08/04 10:39:23;;;;;;;2.35;1.40;;;;;;;;;;5017205;28;20049;-56
2021/08/04 10:42:05;;;;;;;3.20;1.60;;;;;;;;;;5029110;28;20049;-56
2021/08/04 10:44:32;;;;;;;2.50;1.33;;;;;;;;;;5031766;28;20038;-57
2021/08/04 10:47:02;;;;;;;2.75;1.45;;;;;;;;;;5033859;28;20779;-57
2021/08/04 10:49:30;;;;;;;2.42;1.25;;;;;;;;;;5020195;28;20037;-55
2021/08/04 10:51:56;;;;;;;4.40;1.85;;;;;;;;;;5030343;28;20053;-55
2021/08/04 10:54:23;;;;;;;2.90;1.65;;;;;;;;;;5032564;28;20037;-54
2021/08/04 10:56:50;;;;;;;2.88;1.50;;;;;;;;;;5018643;28;20444;-55
2021/08/04 10:59:24;;;;;;;1.80;1.30;;;;;;;;;;5030149;28;20048;-55
2021/08/04 11:01:53;;;;;;;3.25;1.77;;;;;;;;;;5017372;28;20118;-54
2021/08/04 11:04:26;;;;;;;3.65;1.30;;;;;;;;;;5032345;28;20402;-56
2021/08/04 11:07:08;;;;;;;2.17;1.20;;;;;;;;;;5032966;28;20053;-53
2021/08/04 11:09:42;;;;;;;9.18;1.85;;;;;;;;;;5031125;28;20041;-55
2021/08/04 11:12:19;;;;;;;17.73;4.15;;;;;;;;;;5032056;28;20068;-53
2021/08/04 11:14:55;;;;;;;6.07;2.60;;;;;;;;;;5021010;28;20099;-55
2021/08/04 11:17:28;;;;;;;2.65;1.20;;;;;;;;;;5024509;28;20139;-57
2021/08/04 11:19:55;;;;;;;;;;;;;;;;;;5033355;28;20447;-57
2021/08/04 11:22:23;;;;;;;2.25;1.30;;;;;;;;;;5030956;28;19963;-56
2021/08/04 11:24:55;;;;;;;4.05;1.33;;;;;;;;;;5015745;28;20136;-56
2021/08/04 11:27:24;;;;;;;2.05;1.20;;;;;;;;;;5035079;28;20132;-50
2021/08/04 11:29:52;;;;;;;2.70;1.10;;;;;;;;;;5027336;28;20456;-52
2021/08/04 11:32:20;;;;;;;2.92;1.20;;;;;;;;;;5028399;28;20042;-56
2021/08/04 11:34:47;;;;;;;2.20;1.10;;;;;;;;;;5031270;28;20076;-53
2021/08/04 11:37:14;;;;;;;2.75;1.10;;;;;;;;;;5032246;28;20424;-54
2021/08/04 11:40:00;;;;;;;1.63;1.00;;;;;;;;;;5026832;28;20141;-50
2021/08/04 11:42:28;;;;;;;1.55;1.05;;;;;;;;;;5030346;28;20072;-52
2021/08/04 11:45:07;;;;;;;2.08;0.93;;;;;;;;;;5023772;28;20529;-52
2021/08/04 11:47:34;;;;;;;1.98;1.20;;;;;;;;;;5026281;28;20494;-54
2021/08/04 11:50:05;;;;;;;1.58;1.25;;;;;;;;;;5023895;28;20041;-54
2021/08/04 11:52:34;;;;;;;1.58;1.10;;;;;;;;;;5032885;28;20104;-52
2021/08/04 11:55:08;;;;;;;2.35;1.25;;;;;;;;;;5032022;28;20128;-52
2021/08/04 11:57:46;;;;;;;4.38;1.30;;;;;;;;;;5026570;28;20482;-55
2021/08/04 12:00:16;;;;;;;1.33;1.10;;;;;;;;;;5023884;28;20092;-54
2021/08/04 12:02:44;;;;;;;3.90;1.20;;;;;;;;;;5030695;28;20644;-55
2021/08/04 12:05:12;;;;;;;2.00;1.20;;;;;;;;;;5029985;28;20073;-54
2021/08/04 12:07:42;;;;;;;2.83;1.40;;;;;;;;;;5031352;28;20144;-57
2021/08/04 12:10:10;;;;;;;2.00;1.05;;;;;;;;;;5029404;28;20132;-50
2021/08/04 12:12:38;;;;;;;1.52;0.93;;;;;;;;;;5031187;28;20045;-47
2021/08/04 12:15:26;;;;;;;2.20;1.40;;;;;;;;;;5029862;28;20076;-54
2021/08/04 12:17:59;;;;;;;3.20;1.77;;;;;;;;;;5023465;28;20140;-57
2021/08/04 12:20:27;;;;;;;1.80;1.08;;;;;;;;;;5012918;28;20042;-52
2021/08/04 12:22:57;;;;;;;3.35;1.20;;;;;;;;;;5030589;28;20077;-51
2021/08/04 12:25:24;;;;;;;2.33;1.40;;;;;;;;;;5019358;28;20038;-55
2021/08/04 12:27:52;;;;;;;2.72;1.13;;;;;;;;;;5024229;28;20136;-51
2021/08/04 12:30:18;;;;;;;5.00;1.25;;;;;;;;;;5021945;28;20096;-52
2021/08/04 12:32:55;;;;;;;2.63;1.27;;;;;;;;;;5028323;28;20380;-55
2021/08/04 12:35:25;;;;;;;2.70;1.30;;;;;;;;;;5030252;28;20041;-55
2021/08/04 12:37:52;;;;;;;2.65;1.20;;;;;;;;;;5030831;28;20473;-52
2021/08/04 12:40:19;;;;;;;3.65;1.25;;;;;;;;;;5029689;28;20038;-53
2021/08/04 12:42:46;;;;;;;3.20;1.95;;;;;;;;;;5030852;28;20042;-55
2021/08/04 12:45:16;;;;;;;2.25;1.40;;;;;;;;;;5030688;28;20068;-52
2021/08/04 12:47:51;;;;;;;3.25;1.20;;;;;;;;;;5023922;28;20063;-52
2021/08/04 12:50:18;;;;;;;5.60;1.55;;;;;;;;;;5030535;28;20053;-54
2021/08/04 12:52:45;;;;;;;1.75;1.33;;;;;;;;;;5027895;28;20124;-54
2021/08/04 12:55:17;;;;;;;5.35;1.40;;;;;;;;;;5026279;28;20068;-53
2021/08/04 12:57:44;;;;;;;3.70;1.40;;;;;;;;;;5029054;28;20061;-54
2021/08/04 13:00:31;;;;;;;3.15;1.45;;;;;;;;;;5023345;28;20077;-55
2021/08/04 13:02:58;;;;;;;3.85;1.25;;;;;;;;;;5011921;28;20133;-52
2021/08/04 13:05:25;;;;;;;3.47;1.55;;;;;;;;;;5022302;28;20132;-55
2021/08/04 13:07:53;;;;;;;2.35;1.23;;;;;;;;;;5023906;28;20797;-55
2021/08/04 13:10:36;;;;;;;3.40;1.30;;;;;;;;;;5015210;28;20057;-55
2021/08/04 13:13:03;;;;;;;2.50;1.40;;;;;;;;;;5027772;28;20141;-53
2021/08/04 13:15:48;;;;;;;2.38;1.50;;;;;;;;;;5030904;28;20061;-57
2021/08/04 13:18:15;;;;;;;3.13;1.40;;;;;;;;;;5020173;28;20583;-54
2021/08/04 13:20:42;;;;;;;4.50;1.48;;;;;;;;;;5027782;28;20042;-53
2021/08/04 13:23:11;;;;;;;3.60;1.58;;;;;;;;;;5029084;28;20063;-56
2021/08/04 13:25:38;;;;;;;4.45;1.50;;;;;;;;;;5026926;28;20062;-53
2021/08/04 13:28:06;;;;;;;6.85;5.13;;;;;;;;;;5028332;28;20099;-55
2021/08/04 13:30:34;;;;;;;2.53;1.40;;;;;;;;;;5026968;28;20056;-52
2021/08/04 13:33:02;;;;;;;3.17;1.73;;;;;;;;;;5029360;28;20103;-52
2021/08/04 13:35:29;;;;;;;2.60;1.42;;;;;;;;;;5028080;28;20164;-55
2021/08/04 13:37:56;;;;;;;3.63;1.50;;;;;;;;;;5029365;28;20047;-52
2021/08/04 13:40:23;;;;;;;2.38;1.30;;;;;;;;;;5025546;28;20387;-55
2021/08/04 13:42:49;;;;;;;2.45;1.30;;;;;;;;;;5029636;28;20048;-55
2021/08/04 13:45:18;;;;;;;3.00;1.30;;;;;;;;;;5025802;28;20129;-55
2021/08/04 13:47:45;;;;;;;2.05;1.23;;;;;;;;;;5028811;28;20073;-53
2021/08/04 13:50:13;;;;;;;2.10;1.45;;;;;;;;;;5018412;28;20049;-55
2021/08/04 13:52:40;;;;;;;2.65;1.40;;;;;;;;;;5028013;28;20041;-55
2021/08/04 13:55:11;;;;;;;3.17;1.80;;;;;;;;;;5030035;28;20161;-55
2021/08/04 13:57:39;;;;;;;3.78;1.70;;;;;;;;;;5028057;28;20096;-54
2021/08/04 14:00:08;;;;;;;3.47;1.60;;;;;;;;;;5027113;28;20049;-54
2021/08/04 14:02:36;;;;;;;1.77;1.38;;;;;;;;;;5029249;28;20122;-55
2021/08/04 14:05:07;;;;;;;3.05;1.40;;;;;;;;;;5029399;28;20073;-55
2021/08/04 14:07:34;;;;;;;4.30;2.10;;;;;;;;;;5030316;28;20076;-55
2021/08/04 14:10:01;;;;;;;7.18;2.20;;;;;;;;;;5024352;28;20073;-56
2021/08/04 14:12:28;;;;;;;5.10;2.47;;;;;;;;;;5029371;28;20055;-55
2021/08/04 14:14:57;;;;;;;4.07;1.48;;;;;;;;;;5029228;28;20573;-56
2021/08/04 14:17:25;;;;;;;3.08;1.60;;;;;;;;;;5027843;28;20046;-56
2021/08/04 14:19:52;;;;;;;4.95;1.60;;;;;;;;;;5010760;28;20535;-54
2021/08/04 14:22:19;;;;;;;4.28;1.90;;;;;;;;;;5031107;28;20076;-56
2021/08/04 14:24:46;;;;;;;3.53;2.00;;;;;;;;;;5029675;28;20095;-53
2021/08/04 14:27:13;;;;;;;4.40;1.73;;;;;;;;;;5020505;28;20057;-55
2021/08/04 14:29:40;;;;;;;3.83;1.90;;;;;;;;;;5022964;28;20050;-56
2021/08/04 14:32:07;;;;;;;4.05;1.70;;;;;;;;;;5028253;28;20049;-55
2021/08/04 14:34:34;;;;;;;4.57;2.13;;;;;;;;;;5031137;28;20129;-54
2021/08/04 14:37:01;;;;;;;4.43;1.70;;;;;;;;;;5033088;28;20137;-55
2021/08/04 14:39:29;;;;;;;3.30;1.65;;;;;;;;;;5030912;28;20124;-53
2021/08/04 14:41:56;;;;;;;3.10;1.70;;;;;;;;;;5031835;28;20044;-57
2021/08/04 14:44:23;;;;;;;4.03;1.95;;;;;;;;;;5032672;28;20406;-54
2021/08/04 14:46:50;;;;;;;4.05;1.50;;;;;;;;;;5022996;28;20052;-56
2021/08/04 14:49:17;;;;;;;3.10;1.95;;;;;;;;;;5031839;28;20037;-56
2021/08/04 14:51:44;;;;;;;9.13;3.08;;;;;;;;;;5032689;28;20041;-54